Webcams

EDPO Webcam Blick Richtung Osten (local time)

Webcam-2

Info zum Bild:

  • Blick zum Kloster Mariahilf, Entfernung ca. 3km
  • Blick zur Kirche St. Johannes, Entfernung ca. 1km
  • Blick zu den beiden Windrädern, Entfernung ca. 6km

EDPO Webcam Blick Richtung Westen (local time)

Webcam-1

Info zum Bild:

  • Blick zum Tyrolsberg, Entfernung ca. 3,5km

Dillberg Webcam Blick Richtung Osten zu EDPO (local time)

Webcam-1

Info zum Bild:

  • Blick vom Dillberg Richtung Neumarkt, Höhe 555ft über EDPO

Dillberg Webcam Blick Richtung Westen zum Sender (local time)

Webcam-1

Info zum Bild:

  • Blick vom Dillberg Sender, Höhe bis Spitze 1322ft über EDPO
  • 600m Entfernung / Sichtweite von CAM zum Dillberg Sender

Wolfstein Webcam Blick Richtung Osten nach Neumarkt


Snapshot

Info zum Bild:


METAR Informationen der nächstgelegenen Flughäfen


EDDN / Flughafen Nürnberg „Albrecht Dürer“

EDDN 181750Z 09003KT 9999 BKN032 M01/M03 Q1026 NOSIG

ETIC / Fliegerhorst Grafenwöhr AAF

ETIC 181811Z AUTO 00000KT 9999 SCT013 M03/M04 A3029 RMK AO2 SLP287 FZRANO $

ETIH / Fliegerhorst Hohenfels AAF

ETIH 181756Z AUTO 00000KT 9999 BKN034 M03/M03 A3029 RMK AO2 SLPNO T10301031 10013 21036 52018 $